Time;durP1;ratioP1;P1;durP2;ratioP2;P2;SDS_P1;SDS_P2;PMS_P1;PMS_P2;Temp;Humidity;BMP_temperature;BMP_pressure;BME280_temperature;BME280_humidity;BME280_pressure;Samples;Min_cycle;Max_cycle;Signal;HPM_P1;HPM_P2
2022/01/11 00:01:19;;;;;;;17.88;9.43;;;;;;;1.06;65.01;93354.09;2076868;69;20187;-72
2022/01/11 00:03:44;;;;;;;21.35;10.70;;;;;;;0.83;66.59;93364.13;2074289;69;20187;-74
2022/01/11 00:09:00;;;;;;;19.45;10.40;;;;;;;0.99;65.47;93361.00;2074182;69;20135;-70
2022/01/11 00:11:26;;;;;;;18.85;10.10;;;;;;;0.98;65.22;93356.75;2074533;69;20195;-72
2022/01/11 00:13:52;;;;;;;20.08;11.18;;;;;;;0.93;65.33;93359.63;2074024;69;20299;-71
2022/01/11 00:16:17;;;;;;;20.38;10.60;;;;;;;0.87;66.20;93361.75;2074070;69;20248;-68
2022/01/11 00:18:43;;;;;;;18.92;10.23;;;;;;;0.78;66.39;93368.47;2074100;69;20187;-69
2022/01/11 00:21:10;;;;;;;17.63;10.77;;;;;;;0.84;65.63;93362.84;2073874;69;20178;-69
2022/01/11 00:26:01;;;;;;;21.33;11.50;;;;;;;0.82;66.16;93357.81;2073910;69;20586;-70
2022/01/11 00:28:27;;;;;;;22.25;11.98;;;;;;;0.84;66.38;93366.34;2074030;69;20159;-69
2022/01/11 00:31:07;;;;;;;20.50;11.82;;;;;;;0.75;66.02;93364.72;2074120;69;20159;-69
2022/01/11 00:33:41;;;;;;;23.67;12.43;;;;;;;0.58;67.97;93369.81;2070518;69;20700;-69
2022/01/11 00:36:07;;;;;;;23.23;13.10;;;;;;;0.78;67.36;93362.94;2070576;69;20247;-69
2022/01/11 00:38:38;;;;;;;21.38;12.20;;;;;;;0.79;67.06;93367.19;2071022;69;20140;-69
2022/01/11 00:41:06;;;;;;;23.13;12.48;;;;;;;0.79;67.63;93369.97;2074992;69;20908;-69
2022/01/11 00:43:34;;;;;;;24.48;12.38;;;;;;;0.84;66.79;93366.34;2071893;69;20201;-69
2022/01/11 00:46:00;;;;;;;21.35;12.27;;;;;;;0.79;67.13;93367.19;2074794;69;20191;-71
2022/01/11 00:48:27;;;;;;;23.45;12.23;;;;;;;0.85;66.91;93373.38;2074528;69;20179;-79
2022/01/11 00:50:54;;;;;;;25.70;12.63;;;;;;;0.81;67.16;93374.97;2071972;69;20140;-80
2022/01/11 00:53:22;;;;;;;25.80;13.23;;;;;;;0.62;68.25;93378.56;2075009;69;20651;-71
2022/01/11 00:55:52;;;;;;;25.45;13.63;;;;;;;0.64;68.70;93378.03;2075369;69;20655;-71
2022/01/11 00:58:19;;;;;;;25.20;12.75;;;;;;;0.75;67.43;93380.63;2072018;69;20148;-70
2022/01/11 01:00:46;;;;;;;23.90;12.23;;;;;;;0.71;67.36;93377.41;2071621;69;20164;-79
2022/01/11 01:03:13;;;;;;;24.02;12.95;;;;;;;0.63;68.07;93385.59;2075225;69;20159;-71
2022/01/11 01:05:40;;;;;;;20.52;11.88;;;;;;;0.73;66.39;93389.47;2075430;69;20152;-70
2022/01/11 01:08:07;;;;;;;21.63;11.75;;;;;;;0.73;66.46;93391.47;2071900;69;20171;-71
2022/01/11 01:10:39;;;;;;;19.83;11.63;;;;;;;0.63;66.99;93393.91;2075360;69;20698;-72
2022/01/11 01:13:13;;;;;;;21.88;11.90;;;;;;;0.65;66.26;93396.91;2075176;69;20147;-71
2022/01/11 01:15:40;;;;;;;24.15;13.13;;;;;;;0.46;67.63;93396.22;2075322;69;20241;-71
2022/01/11 01:18:21;;;;;;;27.05;14.98;;;;;;;0.55;68.01;93390.28;2071951;69;20156;-72
2022/01/11 01:20:47;;;;;;;25.67;14.00;;;;;;;0.54;68.00;93397.09;2074183;69;20148;-72
2022/01/11 01:23:13;;;;;;;23.67;13.10;;;;;;;0.54;67.46;93405.41;2071403;69;20140;-71
2022/01/11 01:25:44;;;;;;;23.30;13.82;;;;;;;0.51;67.31;93409.25;2075282;69;20585;-70
2022/01/11 01:28:11;;;;;;;22.95;13.48;;;;;;;0.43;68.06;93411.13;2071733;69;20168;-74
2022/01/11 01:30:38;;;;;;;22.63;12.88;;;;;;;0.46;68.04;93421.91;2071760;69;20212;-74
2022/01/11 01:33:04;;;;;;;23.73;13.13;;;;;;;0.33;68.55;93419.09;2071851;69;20231;-72
2022/01/11 01:35:37;;;;;;;22.70;13.27;;;;;;;0.19;69.48;93418.28;2071575;69;20139;-75
2022/01/11 01:38:03;;;;;;;23.88;13.10;;;;;;;0.28;69.46;93424.72;2071915;69;20176;-75
2022/01/11 01:40:36;;;;;;;23.55;12.98;;;;;;;0.44;68.00;93423.69;2074986;69;20278;-81
2022/01/11 01:43:04;;;;;;;24.27;13.00;;;;;;;0.41;68.27;93421.97;2074512;69;20228;-79
2022/01/11 01:45:31;;;;;;;23.15;13.18;;;;;;;0.53;67.15;93428.84;2071660;69;20167;-75
2022/01/11 01:47:58;;;;;;;23.67;13.75;;;;;;;0.40;68.03;93432.31;2075273;69;20144;-74
2022/01/11 01:50:26;;;;;;;22.20;13.52;;;;;;;0.43;67.79;93436.06;2071707;69;20633;-77
2022/01/11 01:52:52;;;;;;;26.02;14.60;;;;;;;0.46;68.19;93437.78;2071565;69;20195;-71
2022/01/11 01:55:18;;;;;;;26.73;15.45;;;;;;;0.56;67.92;93438.13;2071662;69;20227;-73
2022/01/11 01:57:43;;;;;;;22.73;13.48;;;;;;;0.65;66.43;93440.50;2071567;69;20228;-71
2022/01/11 02:00:12;;;;;;;27.38;15.40;;;;;;;0.35;67.91;93449.03;2071701;69;20168;-73
2022/01/11 02:02:41;;;;;;;29.20;16.00;;;;;;;0.16;70.26;93441.47;2075116;69;20186;-71
2022/01/11 02:05:07;;;;;;;31.73;16.65;;;;;;;0.34;70.34;93447.53;2075003;69;20156;-74
2022/01/11 02:07:33;;;;;;;26.08;15.00;;;;;;;0.36;69.53;93447.75;2071629;69;20144;-71
2022/01/11 02:10:01;;;;;;;29.52;15.73;;;;;;;0.43;69.29;93449.91;2074545;69;20175;-71
2022/01/11 02:12:28;;;;;;;27.02;15.30;;;;;;;0.57;68.35;93445.91;2075014;69;20615;-72
2022/01/11 02:14:53;;;;;;;27.63;15.55;;;;;;;0.62;68.25;93449.88;2071493;69;20522;-73
2022/01/11 02:17:19;;;;;;;30.42;16.52;;;;;;;0.55;69.11;93459.56;2071423;69;20184;-72
2022/01/11 02:19:45;;;;;;;27.27;15.90;;;;;;;0.46;69.64;93452.38;2071429;69;20124;-71
2022/01/11 02:22:10;;;;;;;28.55;15.32;;;;;;;0.59;68.85;93457.19;2071307;69;20163;-70
2022/01/11 02:24:36;;;;;;;30.23;16.55;;;;;;;0.47;69.54;93453.13;2071168;69;20129;-71
2022/01/11 02:27:05;;;;;;;32.90;18.02;;;;;;;0.57;68.49;93454.22;2071546;69;20144;-71
2022/01/11 02:29:32;;;;;;;31.75;17.30;;;;;;;0.58;68.70;93458.50;2074958;69;20151;-71
2022/01/11 02:31:58;;;;;;;36.88;19.13;;;;;;;0.59;68.22;93462.00;2071439;69;20143;-71
2022/01/11 02:34:23;;;;;;;33.35;18.25;;;;;;;0.53;68.58;93464.13;2070660;69;20212;-72
2022/01/11 02:37:03;;;;;;;33.25;18.08;;;;;;;0.54;69.22;93460.06;2070356;69;20140;-71
2022/01/11 02:39:36;;;;;;;30.58;17.80;;;;;;;0.58;68.61;93461.25;2070569;69;20160;-71
2022/01/11 02:42:08;;;;;;;31.67;16.58;;;;;;;0.42;69.54;93465.03;2071455;69;20243;-72
2022/01/11 02:44:38;;;;;;;30.33;16.50;;;;;;;0.52;69.06;93462.63;2071398;69;20159;-75
2022/01/11 02:47:05;;;;;;;29.33;16.30;;;;;;;0.56;68.39;93463.06;2071505;69;20514;-79
2022/01/11 02:49:34;;;;;;;26.58;16.17;;;;;;;0.56;68.76;93457.53;2071405;69;20160;-75
2022/01/11 02:52:07;;;;;;;26.05;16.08;;;;;;;0.57;68.66;93459.03;2071422;69;20506;-76
2022/01/11 02:54:33;;;;;;;27.30;16.83;;;;;;;0.60;68.87;93467.03;2071709;69;20143;-73
2022/01/11 02:57:09;;;;;;;27.45;16.70;;;;;;;0.58;68.44;93469.56;2071678;69;20140;-75
2022/01/11 02:59:35;;;;;;;26.73;16.45;;;;;;;0.53;68.95;93478.72;2071589;69;20620;-76
2022/01/11 03:02:00;;;;;;;26.15;15.65;;;;;;;0.69;67.77;93466.63;2075017;69;20597;-74
2022/01/11 03:04:31;;;;;;;28.83;15.88;;;;;;;0.59;68.69;93473.09;2071297;69;20853;-77
2022/01/11 03:06:57;;;;;;;26.48;15.60;;;;;;;0.70;68.52;93462.59;2071580;69;20139;-73
2022/01/11 03:09:28;;;;;;;28.60;16.00;;;;;;;0.69;69.32;93463.13;2070761;69;20243;-74
2022/01/11 03:11:55;;;;;;;27.80;16.00;;;;;;;0.74;68.58;93465.06;2074361;69;20171;-74
2022/01/11 03:14:21;;;;;;;31.98;18.25;;;;;;;0.73;69.32;93467.09;2071392;69;20155;-72
2022/01/11 03:16:47;;;;;;;28.00;16.75;;;;;;;0.71;68.97;93466.84;2071539;69;20551;-71
2022/01/11 03:19:12;;;;;;;28.85;17.40;;;;;;;0.47;70.45;93473.25;2071505;69;20144;-71
2022/01/11 03:21:38;;;;;;;26.42;16.27;;;;;;;0.73;69.57;93480.94;2071508;69;20314;-70
2022/01/11 03:24:04;;;;;;;29.25;16.83;;;;;;;0.87;68.58;93467.88;2071598;69;20212;-72
2022/01/11 03:26:30;;;;;;;29.65;17.58;;;;;;;0.88;69.13;93476.94;2071405;69;20569;-78
2022/01/11 03:28:56;;;;;;;27.80;16.50;;;;;;;0.91;68.89;93475.84;2071429;69;20175;-77
2022/01/11 03:31:26;;;;;;;31.27;17.65;;;;;;;0.86;69.35;93471.88;2071335;69;20159;-81
2022/01/11 03:33:53;;;;;;;32.25;17.35;;;;;;;0.85;69.21;93477.97;2074783;69;20140;-72
2022/01/11 03:36:19;;;;;;;30.42;17.80;;;;;;;0.95;68.56;93479.81;2071509;69;20609;-72
2022/01/11 03:38:44;;;;;;;33.97;18.25;;;;;;;0.97;69.04;93482.81;2074991;69;20201;-71
2022/01/11 03:41:13;;;;;;;34.80;19.00;;;;;;;1.06;68.59;93489.25;2071348;69;20606;-71
2022/01/11 03:43:40;;;;;;;32.25;18.63;;;;;;;0.98;69.04;93487.06;2071659;69;20228;-75
2022/01/11 03:46:10;;;;;;;32.58;18.17;;;;;;;0.78;69.27;93490.44;2071339;69;20183;-72
2022/01/11 03:48:36;;;;;;;33.40;19.23;;;;;;;0.90;69.58;93491.75;2071300;69;20158;-71
2022/01/11 03:51:01;;;;;;;31.45;18.60;;;;;;;0.91;69.56;93490.47;2071464;69;20128;-70
2022/01/11 03:54:02;;;;;;;32.80;18.92;;;;;;;0.88;69.93;93488.75;2074075;69;20147;-72
2022/01/11 03:56:29;;;;;;;30.30;18.15;;;;;;;0.96;69.73;93491.66;2074580;69;20147;-70
2022/01/11 03:59:22;;;;;;;32.40;18.08;;;;;;;1.05;69.33;93494.00;2074354;69;20196;-71
2022/01/11 04:01:48;;;;;;;29.77;17.58;;;;;;;0.86;69.45;93490.56;2071135;69;20148;-70
2022/01/11 04:04:15;;;;;;;30.83;18.02;;;;;;;0.81;70.06;93492.13;2071455;69;20230;-70
2022/01/11 04:06:41;;;;;;;32.20;17.95;;;;;;;0.87;69.71;93494.81;2074706;69;20159;-70
2022/01/11 04:09:09;;;;;;;30.17;18.75;;;;;;;0.93;69.47;93501.78;2074678;69;20184;-70
2022/01/11 04:11:36;;;;;;;34.03;19.75;;;;;;;0.96;69.29;93500.72;2071352;69;20504;-70
2022/01/11 04:14:01;;;;;;;33.22;18.58;;;;;;;1.01;69.10;93499.16;2074708;69;20663;-71
2022/01/11 04:16:28;;;;;;;32.65;19.25;;;;;;;1.04;69.38;93500.09;2071724;69;20166;-77
2022/01/11 04:18:55;;;;;;;35.13;19.55;;;;;;;1.02;68.89;93501.38;2072074;69;20152;-74
2022/01/11 04:21:20;;;;;;;32.85;19.33;;;;;;;1.07;68.20;93501.81;2071925;69;20152;-71
2022/01/11 04:23:50;;;;;;;33.25;18.73;;;;;;;1.06;68.78;93500.34;2072028;69;20186;-73
2022/01/11 04:26:16;;;;;;;34.35;19.55;;;;;;;0.76;69.99;93501.28;2072107;69;20251;-71
2022/01/11 04:28:41;;;;;;;32.53;19.02;;;;;;;0.83;69.84;93511.03;2075610;69;20168;-71
2022/01/11 04:31:08;;;;;;;33.78;18.45;;;;;;;0.92;69.24;93510.63;2072056;69;20151;-71
2022/01/11 04:33:35;;;;;;;33.28;19.02;;;;;;;0.86;70.16;93515.50;2072080;69;20590;-72
2022/01/11 04:36:01;;;;;;;33.17;19.35;;;;;;;0.90;69.78;93510.41;2071950;69;20147;-71
2022/01/11 04:38:29;;;;;;;31.45;19.35;;;;;;;0.88;69.42;93522.03;2075466;69;20144;-71
2022/01/11 04:40:56;;;;;;;32.35;19.83;;;;;;;0.97;69.51;93521.63;2072026;69;20144;-71
2022/01/11 04:43:22;;;;;;;32.67;19.75;;;;;;;0.91;69.94;93522.97;2072181;69;20140;-71
2022/01/11 04:45:49;;;;;;;35.63;21.00;;;;;;;0.98;69.81;93528.66;2072036;69;20148;-74
2022/01/11 04:48:18;;;;;;;37.08;20.25;;;;;;;0.98;69.92;93519.59;2072110;69;20148;-74
2022/01/11 04:50:45;;;;;;;34.10;19.63;;;;;;;0.97;69.54;93531.97;2075311;69;20613;-74
2022/01/11 04:53:12;;;;;;;35.33;20.52;;;;;;;0.75;70.91;93528.25;2072089;69;20151;-76
2022/01/11 04:55:38;;;;;;;35.22;20.30;;;;;;;0.92;69.86;93528.00;2075517;69;20522;-75
2022/01/11 04:58:03;;;;;;;37.70;21.13;;;;;;;0.93;70.83;93532.28;2073305;69;20155;-80
2022/01/11 05:00:29;;;;;;;33.40;19.40;;;;;;;0.97;69.90;93540.28;2072640;69;20168;-79
2022/01/11 05:02:57;;;;;;;35.20;20.38;;;;;;;0.96;70.12;93539.56;2073068;69;20151;-75
2022/01/11 05:05:28;;;;;;;34.45;20.50;;;;;;;0.91;70.37;93529.28;2072141;69;20132;-78
2022/01/11 05:07:54;;;;;;;38.50;21.40;;;;;;;0.74;71.23;93537.13;2072043;69;20216;-74
2022/01/11 05:10:20;;;;;;;33.45;20.45;;;;;;;0.96;70.05;93536.78;2072076;69;20263;-74
2022/01/11 05:12:46;;;;;;;34.58;20.02;;;;;;;0.98;69.38;93533.47;2072002;69;20156;-74
2022/01/11 05:15:15;;;;;;;34.03;20.35;;;;;;;0.95;69.45;93538.03;2069281;69;20503;-74
2022/01/11 05:17:42;;;;;;;38.05;23.38;;;;;;;0.95;70.38;93537.28;2072116;69;20214;-71
2022/01/11 05:20:09;;;;;;;37.40;22.05;;;;;;;0.94;69.89;93544.13;2071954;69;20146;-72
2022/01/11 05:22:35;;;;;;;37.65;22.23;;;;;;;0.87;71.24;93542.72;2075318;69;20182;-71
2022/01/11 05:25:01;;;;;;;38.80;23.55;;;;;;;0.91;71.28;93545.16;2071917;69;20498;-70
2022/01/11 05:27:30;;;;;;;38.60;22.80;;;;;;;0.84;71.19;93537.47;2071795;69;20610;-70
2022/01/11 05:29:56;;;;;;;38.95;22.80;;;;;;;0.89;70.42;93542.94;2071965;69;20602;-71
2022/01/11 05:32:23;;;;;;;46.55;24.80;;;;;;;0.86;69.96;93543.22;2071973;69;20239;-70
2022/01/11 05:34:48;;;;;;;42.33;25.48;;;;;;;0.82;70.38;93534.47;2071822;69;20163;-71
2022/01/11 05:37:14;;;;;;;45.88;24.17;;;;;;;0.82;70.53;93540.00;2071942;69;20583;-70
2022/01/11 05:39:40;;;;;;;41.60;23.75;;;;;;;0.85;70.26;93547.28;2069148;69;20183;-75
2022/01/11 05:42:07;;;;;;;40.08;23.45;;;;;;;0.88;69.58;93543.47;2072002;69;20510;-70
2022/01/11 05:44:35;;;;;;;38.10;23.02;;;;;;;0.89;69.34;93548.47;2071911;69;20160;-72
2022/01/11 05:47:02;;;;;;;39.55;23.85;;;;;;;0.85;69.85;93548.03;2071949;69;20202;-70
2022/01/11 05:49:29;;;;;;;38.17;22.52;;;;;;;0.81;69.92;93560.69;2071910;69;20484;-70
2022/01/11 05:51:56;;;;;;;36.80;22.33;;;;;;;0.84;69.42;93559.66;2071796;69;20267;-70
2022/01/11 05:54:21;;;;;;;39.63;22.75;;;;;;;0.83;69.85;93563.72;2071897;69;20139;-73
2022/01/11 05:56:48;;;;;;;38.92;22.67;;;;;;;0.64;70.87;93566.47;2069148;69;20147;-74
2022/01/11 05:59:13;;;;;;;42.08;23.40;;;;;;;0.69;71.25;93573.97;2075318;69;20140;-74
2022/01/11 06:01:39;;;;;;;41.45;23.30;;;;;;;0.49;71.94;93564.91;2071867;69;20487;-73
2022/01/11 06:04:05;;;;;;;41.05;23.60;;;;;;;0.70;70.64;93573.44;2071829;69;20176;-74
2022/01/11 06:06:30;;;;;;;60.63;32.92;;;;;;;0.73;71.25;93579.94;2071760;69;20499;-75
2022/01/11 06:08:56;;;;;;;73.63;37.05;;;;;;;0.65;71.32;93577.06;2071874;69;20603;-70
2022/01/11 06:11:22;;;;;;;61.30;32.03;;;;;;;0.68;71.06;93589.09;2071813;69;20148;-71
2022/01/11 06:13:51;;;;;;;52.38;28.35;;;;;;;0.65;71.41;93590.16;2071908;69;20204;-70
2022/01/11 06:16:18;;;;;;;58.55;31.08;;;;;;;0.68;71.14;93591.88;2075301;69;20251;-70
2022/01/11 06:18:45;;;;;;;57.10;30.40;;;;;;;0.76;70.85;93587.22;2071901;69;20135;-70
2022/01/11 06:21:31;;;;;;;49.92;28.00;;;;;;;0.64;71.58;93592.19;2075183;69;20191;-70
2022/01/11 06:23:57;;;;;;;49.42;27.25;;;;;;;0.71;71.00;93605.44;2071901;69;20267;-70
2022/01/11 06:26:22;;;;;;;48.35;26.58;;;;;;;0.70;71.13;93606.72;2071858;69;20142;-70
2022/01/11 06:28:48;;;;;;;41.45;23.60;;;;;;;0.68;71.39;93609.25;2071866;69;20179;-70
2022/01/11 06:31:14;;;;;;;47.33;25.10;;;;;;;0.63;71.41;93615.59;2071850;69;20145;-75
2022/01/11 06:33:40;;;;;;;43.97;24.35;;;;;;;0.66;71.84;93628.44;2071867;69;20171;-74
2022/01/11 06:36:10;;;;;;;45.28;25.13;;;;;;;0.60;71.60;93625.00;2071785;69;20151;-78
2022/01/11 06:38:41;;;;;;;42.85;24.23;;;;;;;0.64;71.38;93631.00;2071848;69;20487;-74
2022/01/11 06:41:09;;;;;;;42.60;24.45;;;;;;;0.63;71.76;93635.00;2071844;69;20147;-72
2022/01/11 06:43:37;;;;;;;41.05;23.20;;;;;;;0.70;71.22;93639.97;2071884;69;20144;-76
2022/01/11 06:46:04;;;;;;;40.63;24.08;;;;;;;0.56;71.54;93635.63;2071874;69;20152;-74
2022/01/11 06:48:30;;;;;;;45.47;24.45;;;;;;;0.58;71.63;93646.91;2075209;69;20290;-74
2022/01/11 06:50:56;;;;;;;45.13;25.48;;;;;;;0.62;71.40;93644.59;2072132;69;20151;-71
2022/01/11 06:53:28;;;;;;;48.80;27.05;;;;;;;0.64;71.41;93653.16;2071925;69;20521;-75
2022/01/11 06:55:54;;;;;;;44.55;26.15;;;;;;;0.66;70.92;93647.09;2071787;69;20172;-75
2022/01/11 06:58:21;;;;;;;44.67;26.05;;;;;;;0.69;70.69;93655.09;2071824;69;20144;-76
2022/01/11 07:00:48;;;;;;;46.00;25.55;;;;;;;0.66;70.66;93656.16;2071818;69;20238;-72
2022/01/11 07:03:15;;;;;;;47.25;24.65;;;;;;;0.70;70.29;93658.63;2071757;69;20147;-70
2022/01/11 07:06:04;;;;;;;44.35;25.10;;;;;;;0.58;71.53;93669.09;2074688;69;20142;-70
2022/01/11 07:08:30;;;;;;;46.58;25.55;;;;;;;0.65;71.48;93659.44;2071776;69;20179;-70
2022/01/11 07:10:56;;;;;;;45.65;25.10;;;;;;;0.62;71.34;93660.47;2071745;69;20217;-70
2022/01/11 07:13:22;;;;;;;44.80;25.48;;;;;;;0.69;71.00;93671.00;2071754;69;20150;-72
2022/01/11 07:15:49;;;;;;;49.83;27.48;;;;;;;0.59;72.03;93667.81;2071717;69;20495;-70
2022/01/11 07:18:15;;;;;;;48.58;26.90;;;;;;;0.64;71.83;93669.00;2071811;69;20143;-70
2022/01/11 07:20:44;;;;;;;50.67;27.30;;;;;;;0.69;71.78;93668.97;2071662;69;20166;-71
2022/01/11 07:23:16;;;;;;;48.15;26.92;;;;;;;0.73;71.28;93674.97;2071717;69;20213;-70
2022/01/11 07:25:42;;;;;;;52.83;27.92;;;;;;;0.74;71.49;93676.47;2071712;69;20146;-70
2022/01/11 07:28:10;;;;;;;49.75;27.60;;;;;;;0.78;71.19;93681.72;2071678;69;20132;-70
2022/01/11 07:30:36;;;;;;;47.22;25.83;;;;;;;0.77;71.63;93689.25;2075164;69;20186;-72
2022/01/11 07:33:02;;;;;;;48.40;25.73;;;;;;;0.78;70.98;93684.47;2071726;69;20618;-72
2022/01/11 07:35:29;;;;;;;51.42;28.65;;;;;;;0.73;71.72;93696.38;2071566;69;20152;-75
2022/01/11 07:37:55;;;;;;;52.95;28.83;;;;;;;0.77;71.61;93697.56;2071732;69;20148;-69
2022/01/11 07:40:21;;;;;;;45.45;26.35;;;;;;;0.63;72.41;93707.06;2071721;69;20649;-73
2022/01/11 07:42:49;;;;;;;50.30;27.10;;;;;;;0.74;72.05;93704.19;2071637;69;20144;-70
2022/01/11 07:45:42;;;;;;;51.10;27.65;;;;;;;0.85;71.48;93706.03;2071832;69;20175;-73
2022/01/11 07:48:10;;;;;;;52.03;28.55;;;;;;;0.83;71.95;93711.38;2071680;69;20674;-71
2022/01/11 07:50:42;;;;;;;58.97;29.88;;;;;;;0.91;71.58;93720.59;2071468;69;20140;-72
2022/01/11 07:53:07;;;;;;;51.20;28.88;;;;;;;0.87;71.83;93730.47;2075157;69;20151;-71
2022/01/11 07:55:38;;;;;;;52.70;28.45;;;;;;;0.93;71.55;93723.59;2071616;69;20152;-70
2022/01/11 07:58:05;;;;;;;48.35;27.30;;;;;;;0.97;71.21;93729.59;2071768;69;20681;-71
2022/01/11 08:00:31;;;;;;;52.25;28.70;;;;;;;0.94;71.69;93730.63;2075132;69;20150;-74
2022/01/11 08:02:57;;;;;;;55.83;32.78;;;;;;;1.02;70.85;93734.31;2071736;69;20231;-72
2022/01/11 08:05:36;;;;;;;51.05;29.15;;;;;;;0.78;72.49;93731.59;2071430;69;20247;-77
2022/01/11 08:08:03;;;;;;;50.63;28.55;;;;;;;0.85;72.80;93731.00;2071629;69;20251;-76
2022/01/11 08:10:30;;;;;;;46.70;27.65;;;;;;;0.99;71.69;93737.38;2071662;69;20155;-76
2022/01/11 08:12:58;;;;;;;50.88;29.38;;;;;;;1.10;71.51;93745.56;2071657;69;20136;-73
2022/01/11 08:15:24;;;;;;;54.42;30.38;;;;;;;1.12;71.39;93745.03;2071619;69;20197;-75
2022/01/11 08:17:51;;;;;;;55.25;31.33;;;;;;;1.04;70.67;93744.13;2071695;69;20198;-71
2022/01/11 08:20:21;;;;;;;55.53;31.70;;;;;;;0.93;71.17;93748.56;2071591;69;20216;-72
2022/01/11 08:22:51;;;;;;;61.65;33.05;;;;;;;1.11;70.29;93749.84;2071702;69;20151;-75
2022/01/11 08:25:17;;;;;;;61.03;34.83;;;;;;;1.11;72.13;93746.31;2071689;69;20143;-79
2022/01/11 08:27:43;;;;;;;66.63;33.72;;;;;;;1.19;71.62;93750.75;2071683;69;20605;-70
2022/01/11 08:30:09;;;;;;;59.00;32.78;;;;;;;1.27;71.26;93751.63;2071986;69;20227;-69
2022/01/11 08:32:38;;;;;;;62.88;33.55;;;;;;;1.31;71.27;93753.38;2072293;69;20529;-71
2022/01/11 08:35:05;;;;;;;60.33;33.83;;;;;;;1.38;71.06;93755.56;2075015;69;20635;-73
2022/01/11 08:37:31;;;;;;;67.03;35.55;;;;;;;1.42;71.20;93759.53;2071607;69;20140;-75
2022/01/11 08:39:57;;;;;;;59.75;31.20;;;;;;;1.17;71.82;93756.06;2071749;69;20143;-69
2022/01/11 08:42:27;;;;;;;57.50;31.70;;;;;;;1.26;71.77;93750.13;2071664;69;20155;-75
2022/01/11 08:44:54;;;;;;;56.28;31.90;;;;;;;1.41;70.85;93758.00;2071670;69;20140;-71
2022/01/11 08:47:30;;;;;;;55.05;30.70;;;;;;;1.38;70.75;93758.31;2071525;69;20181;-71
2022/01/11 08:49:59;;;;;;;54.65;30.58;;;;;;;1.52;70.25;93766.19;2071382;69;20147;-71
2022/01/11 08:52:32;;;;;;;55.72;30.48;;;;;;;1.56;70.47;93768.66;2071511;69;20236;-71
2022/01/11 08:54:58;;;;;;;58.15;30.83;;;;;;;1.57;71.03;93767.38;2071507;69;20143;-71
2022/01/11 08:57:24;;;;;;;56.72;31.27;;;;;;;1.63;70.71;93770.06;2071503;69;20236;-72
2022/01/11 08:59:51;;;;;;;55.67;29.75;;;;;;;1.62;69.92;93769.31;2071467;69;20608;-71
2022/01/11 09:02:20;;;;;;;56.25;30.25;;;;;;;1.63;70.51;93770.06;2071883;69;20160;-72
2022/01/11 09:04:47;;;;;;;54.13;29.42;;;;;;;1.60;70.39;93769.09;2071944;69;20171;-70
2022/01/11 09:07:20;;;;;;;52.92;29.48;;;;;;;1.55;70.29;93766.41;2071990;69;20156;-70
2022/01/11 09:09:47;;;;;;;72.75;37.80;;;;;;;1.52;70.70;93765.44;2071967;69;20147;-70
2022/01/11 09:12:15;;;;;;;59.78;33.60;;;;;;;1.44;70.82;93772.88;2072068;69;20171;-70
2022/01/11 09:14:44;;;;;;;57.40;33.05;;;;;;;1.64;70.10;93769.53;2071986;69;20472;-70
2022/01/11 09:17:11;;;;;;;58.40;33.60;;;;;;;1.63;71.03;93772.84;2075555;69;20258;-75
2022/01/11 09:19:37;;;;;;;56.60;32.28;;;;;;;1.73;70.92;93768.41;2071932;69;20518;-74
2022/01/11 09:22:06;;;;;;;56.47;30.17;;;;;;;1.80;69.55;93772.59;2072059;69;20152;-71
2022/01/11 09:24:31;;;;;;;53.40;30.90;;;;;;;1.68;71.00;93775.53;2072068;69;20217;-76
2022/01/11 09:27:04;;;;;;;45.53;26.65;;;;;;;1.68;70.04;93780.34;2072083;69;20176;-80
2022/01/11 09:29:32;;;;;;;42.45;23.90;;;;;;;1.63;70.58;93781.91;2072264;69;20297;-78
2022/01/11 09:32:00;;;;;;;39.92;23.33;;;;;;;1.66;69.70;93774.56;2072286;69;20503;-71
2022/01/11 09:34:28;;;;;;;47.55;26.17;;;;;;;1.87;69.95;93780.31;2072333;69;20152;-71
2022/01/11 09:36:55;;;;;;;50.55;29.23;;;;;;;1.76;69.41;93772.91;2072785;69;20155;-74
2022/01/11 09:39:22;;;;;;;45.05;26.13;;;;;;;1.97;68.74;93768.28;2072221;69;20140;-71
2022/01/11 09:41:48;;;;;;;57.20;31.02;;;;;;;1.95;69.11;93770.84;2072187;69;20156;-72
2022/01/11 09:44:14;;;;;;;45.67;25.92;;;;;;;2.03;69.16;93774.50;2072349;69;20144;-71
2022/01/11 09:46:41;;;;;;;47.03;26.55;;;;;;;2.14;69.76;93773.56;2069465;69;20159;-71
2022/01/11 09:49:07;;;;;;;42.50;24.90;;;;;;;2.67;67.67;93773.66;2072199;69;20148;-71
2022/01/11 09:51:36;;;;;;;45.75;26.85;;;;;;;2.83;67.96;93766.28;2072107;69;20677;-71
2022/01/11 09:54:04;;;;;;;40.20;22.88;;;;;;;2.97;68.40;93770.56;2072201;69;20172;-74
2022/01/11 09:56:33;;;;;;;38.22;21.67;;;;;;;3.39;66.72;93759.63;2072061;69;20150;-76
2022/01/11 09:58:59;;;;;;;37.13;21.95;;;;;;;3.44;65.42;93758.75;2072221;69;20143;-76
2022/01/11 10:01:43;;;;;;;41.70;23.83;;;;;;;3.53;64.82;93752.72;2075708;69;20147;-74
2022/01/11 10:04:14;;;;;;;40.20;24.33;;;;;;;2.97;65.30;93756.66;2075380;69;20140;-77
2022/01/11 10:07:15;;;;;;;30.65;18.75;;;;;;;2.68;62.97;93752.16;2064338;69;20155;-76
2022/01/11 10:09:48;;;;;;;35.97;20.52;;;;;;;3.53;64.09;93752.72;2069694;69;20194;-75
2022/01/11 10:12:16;;;;;;;28.88;17.77;;;;;;;4.04;61.38;93746.75;2071878;69;20231;-75
2022/01/11 10:14:51;;;;;;;29.30;17.10;;;;;;;4.82;59.53;93746.06;2071892;69;20597;-75
2022/01/11 10:17:20;;;;;;;27.60;16.80;;;;;;;5.09;58.08;93741.00;2071934;69;20144;-77
2022/01/11 10:20:09;;;;;;;22.67;13.30;;;;;;;5.30;55.10;93749.28;2072615;69;20155;-72
2022/01/11 10:22:52;;;;;;;19.80;11.63;;;;;;;5.83;53.35;93741.09;2072334;69;20244;-74
2022/01/11 10:25:18;;;;;;;;;;;;;;;6.38;54.45;93748.31;2072088;69;20458;-78
2022/01/11 10:27:51;;;;;;;16.35;10.45;;;;;;;6.46;50.42;93742.69;2071935;69;20490;-79
2022/01/11 10:30:20;;;;;;;19.75;11.98;;;;;;;5.74;49.56;93732.50;2075400;69;20243;-78
2022/01/11 10:33:00;;;;;;;15.55;9.60;;;;;;;6.25;47.97;93731.69;2071860;69;20520;-75
2022/01/11 10:35:49;;;;;;;14.57;9.40;;;;;;;6.06;47.39;93732.06;2071710;69;20230;-76
2022/01/11 10:38:30;;;;;;;17.27;11.82;;;;;;;6.41;48.15;93729.63;2071879;69;20152;-74
2022/01/11 10:41:04;;;;;;;21.00;13.07;;;;;;;7.27;47.50;93727.66;2071824;69;20143;-80
2022/01/11 10:43:42;;;;;;;19.55;12.45;;;;;;;6.78;48.72;93722.53;2071812;69;20616;-78
2022/01/11 10:46:09;;;;;;;19.30;13.90;;;;;;;7.77;48.14;93727.84;2071853;69;20136;-76
2022/01/11 10:48:39;;;;;;;21.40;13.90;;;;;;;7.57;48.67;93726.06;2071863;69;20144;-76
2022/01/11 10:51:14;;;;;;;18.58;13.35;;;;;;;8.14;48.56;93722.59;2071774;69;20155;-73
2022/01/11 10:53:45;;;;;;;20.95;14.55;;;;;;;8.29;48.20;93727.34;2071951;69;20187;-70
2022/01/11 10:56:11;;;;;;;21.40;15.27;;;;;;;8.59;47.13;93723.59;2071847;69;20238;-73
2022/01/11 10:59:02;;;;;;;20.90;15.13;;;;;;;8.71;45.96;93733.06;2071865;69;20144;-70
2022/01/11 11:01:31;;;;;;;21.85;15.23;;;;;;;7.41;46.71;93724.63;2071846;69;20230;-73
2022/01/11 11:03:57;;;;;;;22.25;15.27;;;;;;;7.87;47.28;93725.16;2071833;69;20181;-72
2022/01/11 11:06:25;;;;;;;21.02;14.85;;;;;;;7.29;47.85;93721.50;2075123;69;20136;-72
2022/01/11 11:08:50;;;;;;;22.73;16.45;;;;;;;6.99;47.83;93725.13;2076302;69;20183;-72
2022/01/11 11:11:42;;;;;;;26.30;17.30;;;;;;;9.60;45.64;93716.41;2071787;69;20255;-72
2022/01/11 11:14:55;;;;;;;19.40;14.82;;;;;;;11.63;42.01;93716.41;2071851;69;20176;-72
2022/01/11 11:17:38;;;;;;;22.17;16.33;;;;;;;10.74;41.76;93716.16;2071803;69;20522;-74
2022/01/11 11:20:21;;;;;;;24.70;18.15;;;;;;;11.55;40.67;93719.41;2071896;69;20637;-73
2022/01/11 11:22:46;;;;;;;21.60;17.55;;;;;;;10.10;42.97;93716.88;2075247;69;20139;-73
2022/01/11 11:25:12;;;;;;;23.17;18.50;;;;;;;12.02;40.23;93730.53;2075108;69;20167;-72
2022/01/11 11:27:37;;;;;;;24.50;18.98;;;;;;;12.41;39.80;93726.28;2075230;69;20182;-72
2022/01/11 11:30:04;;;;;;;27.85;21.63;;;;;;;11.70;39.30;93724.00;2075168;69;20147;-72
2022/01/11 11:32:31;;;;;;;33.83;25.58;;;;;;;8.95;42.12;93722.34;2075155;69;20155;-72
2022/01/11 11:34:57;;;;;;;28.30;21.55;;;;;;;7.90;44.94;93729.66;2075036;69;20148;-72
2022/01/11 11:37:31;;;;;;;28.23;20.25;;;;;;;8.56;44.13;93717.06;2074937;69;20147;-72